CFG4MF LGIR-EDDL
Flight info
| Callsign | CFG4MF |
|---|---|
| Flight time | N/A |
| Altitude | 36000 |
| Route | EPALO M749 DIRMI UL613 YNN UL604 DIMIS DCT RETRA DCT PETOV DCT LAMSI L604 RODIS DCT TESDU DCT AMETU T852 TINSA T854 DOMUX DOMUX1A |
| Aircraft | A321/M-SDE3FGHIRWY/LB1 |
Departure
| Time | 2026-05-05 16:26 |
|---|---|
| Airport | Heraklion International Nikos Kazantzakis Airport (LGIR) |
Arrival
| Time | N/A |
|---|---|
| Airport | Düsseldorf Airport (EDDL) |
| Time | Latitude | Longitude | Altitude | Speed | Heading |
|---|---|---|---|---|---|
| 2026-05-05 15:51 | 35.33862 | 25.17670 | 87 ft | 0 kts | 318° |
| 2026-05-05 16:18 | 35.33875 | 25.17657 | 89 ft | 2 kts | 329° |
| 2026-05-05 16:19 | 35.33881 | 25.17657 | 89 ft | 0 kts | 358° |
| 2026-05-05 16:19 | 35.33890 | 25.17664 | 88 ft | 1 kts | 34° |
| 2026-05-05 16:19 | 35.33898 | 25.17755 | 87 ft | 7 kts | 94° |
| 2026-05-05 16:20 | 35.33885 | 25.17957 | 90 ft | 20 kts | 96° |
| 2026-05-05 16:20 | 35.33864 | 25.18222 | 95 ft | 11 kts | 95° |
| 2026-05-05 16:21 | 35.33844 | 25.18499 | 90 ft | 20 kts | 95° |
| 2026-05-05 16:22 | 35.33819 | 25.18860 | 88 ft | 0 kts | 95° |
| 2026-05-05 16:24 | 35.33816 | 25.18899 | 89 ft | 8 kts | 92° |
| 2026-05-05 16:24 | 35.33864 | 25.19015 | 99 ft | 7 kts | 40° |
| 2026-05-05 16:25 | 35.33892 | 25.19025 | 99 ft | 6 kts | 351° |
| 2026-05-05 16:25 | 35.33913 | 25.18919 | 100 ft | 0 kts | 275° |
| 2026-05-05 16:25 | 35.33915 | 25.18890 | 99 ft | 17 kts | 275° |
| 2026-05-05 16:26 | 35.34044 | 25.17158 | 131 ft | 170 kts | 276° |
| 2026-05-05 16:26 | 35.34520 | 25.14118 | 1473 ft | 192 kts | 300° |
| 2026-05-05 16:27 | 35.35539 | 25.13094 | 2020 ft | 194 kts | 340° |
| 2026-05-05 16:27 | 35.36891 | 25.13052 | 2514 ft | 198 kts | 1° |
| 2026-05-05 16:27 | 35.38301 | 25.13150 | 2774 ft | 211 kts | 353° |
| 2026-05-05 16:27 | 35.39737 | 25.12528 | 2940 ft | 230 kts | 332° |
| 2026-05-05 16:28 | 35.41305 | 25.11782 | 3352 ft | 249 kts | 342° |
| 2026-05-05 16:28 | 35.42966 | 25.11217 | 4137 ft | 254 kts | 345° |
| 2026-05-05 16:28 | 35.44687 | 25.10683 | 4997 ft | 256 kts | 346° |
| 2026-05-05 16:28 | 35.46417 | 25.10137 | 5883 ft | 258 kts | 346° |
| 2026-05-05 16:29 | 35.48155 | 25.09566 | 6744 ft | 259 kts | 346° |
| 2026-05-05 16:29 | 35.49897 | 25.08968 | 7559 ft | 261 kts | 345° |
| 2026-05-05 16:29 | 35.51653 | 25.08346 | 8363 ft | 264 kts | 344° |
| 2026-05-05 16:29 | 35.53422 | 25.07708 | 9133 ft | 266 kts | 343° |
| 2026-05-05 16:30 | 35.55203 | 25.07057 | 9893 ft | 269 kts | 343° |
| 2026-05-05 16:30 | 35.57016 | 25.06390 | 10402 ft | 280 kts | 343° |
| 2026-05-05 16:30 | 35.58951 | 25.05672 | 10540 ft | 302 kts | 343° |
| 2026-05-05 16:30 | 35.61039 | 25.04897 | 10663 ft | 324 kts | 343° |
| 2026-05-05 16:31 | 35.63241 | 25.04085 | 11008 ft | 336 kts | 343° |
| 2026-05-05 16:31 | 35.65467 | 25.03271 | 11599 ft | 340 kts | 343° |
| 2026-05-05 16:31 | 35.67746 | 25.02437 | 12237 ft | 343 kts | 342° |
| 2026-05-05 16:31 | 35.70040 | 25.01596 | 12899 ft | 346 kts | 342° |
| 2026-05-05 16:32 | 35.72354 | 25.00721 | 13529 ft | 350 kts | 340° |
| 2026-05-05 16:32 | 35.74660 | 24.99723 | 14108 ft | 353 kts | 338° |
| 2026-05-05 16:32 | 35.76961 | 24.98639 | 14682 ft | 355 kts | 337° |
| 2026-05-05 16:32 | 35.79262 | 24.97511 | 15262 ft | 357 kts | 336° |
| 2026-05-05 16:33 | 35.81397 | 24.95963 | 15817 ft | 358 kts | 323° |
| 2026-05-05 16:33 | 35.83386 | 24.94103 | 16395 ft | 360 kts | 322° |
| 2026-05-05 16:33 | 35.85378 | 24.92213 | 16964 ft | 362 kts | 322° |
| 2026-05-05 16:33 | 35.87369 | 24.90307 | 17521 ft | 364 kts | 322° |
| 2026-05-05 16:34 | 35.89346 | 24.88413 | 18056 ft | 366 kts | 322° |
| 2026-05-05 16:34 | 35.91364 | 24.86479 | 18565 ft | 368 kts | 322° |
| 2026-05-05 16:34 | 35.93389 | 24.84540 | 19027 ft | 370 kts | 322° |
| 2026-05-05 16:34 | 35.95427 | 24.82593 | 19504 ft | 371 kts | 322° |
| 2026-05-05 16:35 | 35.97474 | 24.80639 | 19971 ft | 373 kts | 322° |
| 2026-05-05 16:35 | 35.99529 | 24.78676 | 20434 ft | 374 kts | 322° |
| 2026-05-05 16:35 | 36.01593 | 24.76705 | 20890 ft | 376 kts | 322° |
| 2026-05-05 16:35 | 36.03667 | 24.74719 | 21339 ft | 378 kts | 322° |
| 2026-05-05 16:36 | 36.05747 | 24.72723 | 21784 ft | 380 kts | 322° |
| 2026-05-05 16:36 | 36.07835 | 24.70716 | 22244 ft | 381 kts | 322° |
| 2026-05-05 16:36 | 36.09937 | 24.68694 | 22691 ft | 383 kts | 322° |
| 2026-05-05 16:36 | 36.12045 | 24.66668 | 23132 ft | 385 kts | 322° |
| 2026-05-05 16:37 | 36.14138 | 24.64659 | 23556 ft | 387 kts | 322° |
| 2026-05-05 16:37 | 36.16273 | 24.62611 | 23944 ft | 389 kts | 322° |
| 2026-05-05 16:37 | 36.18411 | 24.60559 | 24294 ft | 390 kts | 322° |
| 2026-05-05 16:37 | 36.20559 | 24.58494 | 24678 ft | 391 kts | 322° |
| 2026-05-05 16:38 | 36.22708 | 24.56422 | 25037 ft | 392 kts | 322° |
| 2026-05-05 16:38 | 36.24864 | 24.54345 | 25403 ft | 393 kts | 322° |
| 2026-05-05 16:38 | 36.27025 | 24.52263 | 25759 ft | 394 kts | 322° |
| 2026-05-05 16:38 | 36.29193 | 24.50168 | 26127 ft | 395 kts | 322° |
| 2026-05-05 16:39 | 36.31363 | 24.48068 | 26478 ft | 396 kts | 322° |
| 2026-05-05 16:39 | 36.33541 | 24.45959 | 26820 ft | 398 kts | 322° |
| 2026-05-05 16:39 | 36.35725 | 24.43849 | 27152 ft | 399 kts | 322° |
| 2026-05-05 16:39 | 36.37915 | 24.41732 | 27478 ft | 400 kts | 322° |
| 2026-05-05 16:40 | 36.40084 | 24.39632 | 27802 ft | 401 kts | 323° |
| 2026-05-05 16:40 | 36.42284 | 24.37502 | 28107 ft | 402 kts | 322° |
| 2026-05-05 16:40 | 36.44496 | 24.35360 | 28424 ft | 404 kts | 322° |
| 2026-05-05 16:40 | 36.46711 | 24.33207 | 28717 ft | 405 kts | 322° |
| 2026-05-05 16:41 | 36.48931 | 24.31047 | 29032 ft | 406 kts | 322° |
| 2026-05-05 16:41 | 36.51149 | 24.28890 | 29431 ft | 404 kts | 323° |
| 2026-05-05 16:41 | 36.53360 | 24.26742 | 29863 ft | 402 kts | 323° |
| 2026-05-05 16:41 | 36.55560 | 24.24605 | 30265 ft | 400 kts | 323° |
| 2026-05-05 16:42 | 36.57748 | 24.22475 | 30617 ft | 399 kts | 322° |
| 2026-05-05 16:42 | 36.59927 | 24.20346 | 30940 ft | 398 kts | 322° |
| 2026-05-05 16:42 | 36.62100 | 24.18220 | 31275 ft | 397 kts | 322° |
| 2026-05-05 16:42 | 36.64269 | 24.16097 | 31594 ft | 397 kts | 322° |
| 2026-05-05 16:43 | 36.66439 | 24.13976 | 31918 ft | 396 kts | 322° |
| 2026-05-05 16:43 | 36.68575 | 24.11892 | 32231 ft | 396 kts | 322° |
| 2026-05-05 16:43 | 36.70740 | 24.09780 | 32566 ft | 395 kts | 322° |
| 2026-05-05 16:43 | 36.72901 | 24.07663 | 32875 ft | 395 kts | 322° |
| 2026-05-05 16:44 | 36.75057 | 24.05549 | 33164 ft | 395 kts | 321° |
| 2026-05-05 16:44 | 36.77216 | 24.03429 | 33445 ft | 395 kts | 321° |
| 2026-05-05 16:44 | 36.79374 | 24.01309 | 33740 ft | 395 kts | 321° |
| 2026-05-05 16:44 | 36.81532 | 23.99186 | 34050 ft | 395 kts | 321° |
| 2026-05-05 16:45 | 36.83685 | 23.97067 | 34306 ft | 394 kts | 321° |
| 2026-05-05 16:45 | 36.85838 | 23.94946 | 34589 ft | 393 kts | 321° |
| 2026-05-05 16:45 | 36.87981 | 23.92834 | 34888 ft | 392 kts | 321° |
| 2026-05-05 16:45 | 36.90095 | 23.90751 | 35150 ft | 391 kts | 321° |
| 2026-05-05 16:46 | 36.92228 | 23.88647 | 35409 ft | 391 kts | 321° |
| 2026-05-05 16:46 | 36.94362 | 23.86541 | 35647 ft | 391 kts | 321° |
| 2026-05-05 16:46 | 36.96496 | 23.84437 | 35881 ft | 390 kts | 321° |
| 2026-05-05 16:46 | 36.98627 | 23.82332 | 36031 ft | 390 kts | 321° |
| 2026-05-05 16:47 | 37.02871 | 23.78133 | 36054 ft | 388 kts | 321° |
| 2026-05-05 16:47 | 37.07076 | 23.73965 | 36042 ft | 387 kts | 321° |
| 2026-05-05 16:48 | 37.11297 | 23.69773 | 36054 ft | 387 kts | 320° |
| 2026-05-05 16:48 | 37.15518 | 23.65579 | 36051 ft | 387 kts | 320° |
| 2026-05-05 16:49 | 37.19735 | 23.61387 | 36052 ft | 387 kts | 320° |
| 2026-05-05 16:49 | 37.23956 | 23.57185 | 36055 ft | 387 kts | 320° |
| 2026-05-05 16:50 | 37.28145 | 23.53003 | 36050 ft | 387 kts | 320° |
| 2026-05-05 16:50 | 37.32354 | 23.48794 | 36048 ft | 387 kts | 320° |
| 2026-05-05 16:51 | 37.36563 | 23.44580 | 36046 ft | 387 kts | 320° |
| 2026-05-05 16:51 | 37.40767 | 23.40368 | 36040 ft | 386 kts | 321° |
| 2026-05-05 16:52 | 37.44958 | 23.36168 | 36061 ft | 385 kts | 321° |
| 2026-05-05 16:52 | 37.49140 | 23.31963 | 36059 ft | 384 kts | 321° |
| 2026-05-05 16:53 | 37.53284 | 23.27789 | 36053 ft | 384 kts | 321° |
| 2026-05-05 16:53 | 37.57447 | 23.23581 | 36052 ft | 384 kts | 320° |
| 2026-05-05 16:54 | 37.61611 | 23.19372 | 36051 ft | 384 kts | 321° |
| 2026-05-05 16:54 | 37.65777 | 23.15166 | 36050 ft | 384 kts | 320° |
| 2026-05-05 16:55 | 37.69941 | 23.10955 | 36057 ft | 384 kts | 320° |
| 2026-05-05 16:55 | 37.74061 | 23.06760 | 36044 ft | 383 kts | 321° |
| 2026-05-05 16:56 | 37.78204 | 23.02548 | 36046 ft | 382 kts | 321° |
| 2026-05-05 16:56 | 37.82347 | 22.98341 | 36050 ft | 382 kts | 321° |
| 2026-05-05 16:57 | 37.86483 | 22.94133 | 36048 ft | 381 kts | 321° |
| 2026-05-05 16:57 | 37.90586 | 22.89940 | 36050 ft | 382 kts | 321° |
| 2026-05-05 16:58 | 37.94715 | 22.85716 | 36049 ft | 381 kts | 321° |
| 2026-05-05 16:58 | 37.98840 | 22.81497 | 36076 ft | 381 kts | 321° |
| 2026-05-05 16:59 | 38.02958 | 22.77280 | 36056 ft | 380 kts | 321° |
| 2026-05-05 16:59 | 38.07062 | 22.73064 | 36060 ft | 380 kts | 321° |
| 2026-05-05 17:00 | 38.11166 | 22.68841 | 36066 ft | 380 kts | 320° |
| 2026-05-05 17:00 | 38.15235 | 22.64645 | 36069 ft | 379 kts | 320° |
| 2026-05-05 17:01 | 38.19330 | 22.60425 | 36067 ft | 379 kts | 320° |
| 2026-05-05 17:01 | 38.23419 | 22.56200 | 36070 ft | 379 kts | 320° |
| 2026-05-05 17:02 | 38.27503 | 22.51975 | 36084 ft | 378 kts | 320° |
| 2026-05-05 17:02 | 38.31556 | 22.47779 | 36081 ft | 378 kts | 320° |
| 2026-05-05 17:03 | 38.35633 | 22.43557 | 36073 ft | 378 kts | 320° |
| 2026-05-05 17:03 | 38.39715 | 22.39324 | 36073 ft | 378 kts | 320° |
| 2026-05-05 17:04 | 38.43790 | 22.35081 | 36065 ft | 378 kts | 320° |
| 2026-05-05 17:04 | 38.47867 | 22.30833 | 36070 ft | 378 kts | 320° |
| 2026-05-05 17:05 | 38.51911 | 22.26620 | 36075 ft | 379 kts | 320° |
| 2026-05-05 17:05 | 38.55982 | 22.22354 | 36070 ft | 378 kts | 320° |
| 2026-05-05 17:06 | 38.60057 | 22.18077 | 36080 ft | 379 kts | 320° |
| 2026-05-05 17:06 | 38.64119 | 22.13821 | 36076 ft | 378 kts | 320° |
| 2026-05-05 17:07 | 38.68206 | 22.09545 | 36061 ft | 379 kts | 319° |
| 2026-05-05 17:07 | 38.72265 | 22.05277 | 36068 ft | 381 kts | 319° |
| 2026-05-05 17:08 | 38.76360 | 22.00969 | 36062 ft | 380 kts | 319° |
| 2026-05-05 17:08 | 38.80453 | 21.96649 | 36087 ft | 382 kts | 319° |
| 2026-05-05 17:09 | 38.84566 | 21.92309 | 36083 ft | 383 kts | 320° |
| 2026-05-05 17:09 | 38.88683 | 21.87958 | 36080 ft | 384 kts | 320° |
| 2026-05-05 17:10 | 38.92807 | 21.83586 | 36076 ft | 384 kts | 320° |
| 2026-05-05 17:10 | 38.96926 | 21.79207 | 36080 ft | 385 kts | 319° |
| 2026-05-05 17:11 | 39.01058 | 21.74807 | 36075 ft | 387 kts | 319° |
| 2026-05-05 17:11 | 39.05178 | 21.70416 | 36081 ft | 388 kts | 319° |
| 2026-05-05 17:12 | 39.09328 | 21.65978 | 36089 ft | 388 kts | 319° |
| 2026-05-05 17:12 | 39.13481 | 21.61538 | 36078 ft | 388 kts | 319° |
| 2026-05-05 17:13 | 39.17637 | 21.57098 | 36080 ft | 388 kts | 319° |
| 2026-05-05 17:13 | 39.21086 | 21.53407 | 36081 ft | 388 kts | 319° |
| 2026-05-05 17:14 | 39.25901 | 21.48240 | 36075 ft | 387 kts | 319° |
| 2026-05-05 17:14 | 39.30049 | 21.43794 | 36077 ft | 388 kts | 319° |
| 2026-05-05 17:15 | 39.34195 | 21.39341 | 36102 ft | 387 kts | 319° |
| 2026-05-05 17:15 | 39.37632 | 21.35632 | 36102 ft | 387 kts | 319° |
| 2026-05-05 17:16 | 39.41762 | 21.31161 | 36111 ft | 388 kts | 318° |
| 2026-05-05 17:16 | 39.46571 | 21.25963 | 36115 ft | 387 kts | 318° |
| 2026-05-05 17:17 | 39.50008 | 21.22248 | 36116 ft | 387 kts | 319° |
| 2026-05-05 17:17 | 39.54135 | 21.17768 | 36116 ft | 388 kts | 318° |
| 2026-05-05 17:18 | 39.58268 | 21.13275 | 36113 ft | 388 kts | 318° |
| 2026-05-05 17:18 | 39.62403 | 21.08781 | 36122 ft | 387 kts | 318° |
| 2026-05-05 17:19 | 39.66527 | 21.04281 | 36119 ft | 388 kts | 318° |
| 2026-05-05 17:19 | 39.70626 | 20.99800 | 36113 ft | 387 kts | 318° |
| 2026-05-05 17:20 | 39.74750 | 20.95293 | 36109 ft | 387 kts | 318° |
| 2026-05-05 17:20 | 39.78871 | 20.90779 | 36109 ft | 388 kts | 318° |
| 2026-05-05 17:21 | 39.82992 | 20.86259 | 36109 ft | 387 kts | 318° |
| 2026-05-05 17:22 | 39.89170 | 20.79472 | 36103 ft | 388 kts | 318° |
| 2026-05-05 17:22 | 39.93271 | 20.74951 | 36099 ft | 389 kts | 318° |
| 2026-05-05 17:23 | 39.97410 | 20.70384 | 36100 ft | 390 kts | 318° |
| 2026-05-05 17:23 | 40.01555 | 20.65799 | 36106 ft | 391 kts | 318° |
| 2026-05-05 17:24 | 40.05699 | 20.61215 | 36110 ft | 391 kts | 319° |
| 2026-05-05 17:24 | 40.10434 | 20.57674 | 36113 ft | 396 kts | 333° |
| 2026-05-05 17:25 | 40.15462 | 20.54853 | 36120 ft | 396 kts | 333° |
| 2026-05-05 17:25 | 40.20523 | 20.52001 | 36124 ft | 396 kts | 333° |
| 2026-05-05 17:26 | 40.25575 | 20.49144 | 36122 ft | 395 kts | 333° |
| 2026-05-05 17:26 | 40.30620 | 20.46269 | 36108 ft | 395 kts | 333° |
| 2026-05-05 17:27 | 40.35633 | 20.43407 | 36113 ft | 396 kts | 333° |
| 2026-05-05 17:27 | 40.40693 | 20.40530 | 36115 ft | 397 kts | 333° |
| 2026-05-05 17:28 | 40.45757 | 20.37646 | 36119 ft | 396 kts | 333° |
| 2026-05-05 17:28 | 40.50812 | 20.34763 | 36118 ft | 396 kts | 333° |
| 2026-05-05 17:29 | 40.55867 | 20.31864 | 36119 ft | 396 kts | 333° |
| 2026-05-05 17:29 | 40.60887 | 20.28984 | 36129 ft | 396 kts | 332° |
| 2026-05-05 17:30 | 40.65933 | 20.26075 | 36132 ft | 396 kts | 332° |
| 2026-05-05 17:30 | 40.70983 | 20.23162 | 36131 ft | 396 kts | 332° |
| 2026-05-05 17:31 | 40.76030 | 20.20257 | 36126 ft | 396 kts | 333° |
| 2026-05-05 17:31 | 40.81044 | 20.17367 | 36124 ft | 396 kts | 332° |
| 2026-05-05 17:32 | 40.86091 | 20.14459 | 36128 ft | 396 kts | 332° |
| 2026-05-05 17:32 | 40.91142 | 20.11538 | 36115 ft | 397 kts | 332° |
| 2026-05-05 17:33 | 40.96201 | 20.08601 | 36109 ft | 397 kts | 332° |
| 2026-05-05 17:33 | 41.01272 | 20.05658 | 36105 ft | 398 kts | 332° |
| 2026-05-05 17:34 | 41.06313 | 20.02731 | 36106 ft | 398 kts | 332° |
| 2026-05-05 17:34 | 41.11387 | 19.99777 | 36109 ft | 398 kts | 332° |
| 2026-05-05 17:35 | 41.16460 | 19.96824 | 36112 ft | 398 kts | 332° |
| 2026-05-05 17:35 | 41.21537 | 19.93856 | 36114 ft | 399 kts | 332° |